createdAt,value
2017-10-06T00:00:45.445Z,49.90
2017-10-06T00:03:13.730Z,49.90
2017-10-06T00:05:42.016Z,49.90
2017-10-06T00:08:10.284Z,49.90
2017-10-06T00:10:38.931Z,49.90
2017-10-06T00:13:07.247Z,50.00
2017-10-06T00:15:36.453Z,49.90
2017-10-06T00:18:04.704Z,49.90
2017-10-06T00:20:32.950Z,49.80
2017-10-06T00:23:01.248Z,49.90
2017-10-06T00:25:30.284Z,49.90
2017-10-06T00:27:59.017Z,49.90
2017-10-06T00:30:27.365Z,49.80
2017-10-06T00:32:55.700Z,49.90
2017-10-06T00:35:23.990Z,49.80
2017-10-06T00:37:52.313Z,49.80
2017-10-06T00:40:20.612Z,49.90
2017-10-06T00:42:49.657Z,49.90
2017-10-06T00:45:17.907Z,49.70
2017-10-06T00:47:46.179Z,49.90
2017-10-06T00:50:14.422Z,49.80
2017-10-06T00:52:43.414Z,49.70
2017-10-06T00:55:12.449Z,49.80
2017-10-06T00:57:40.865Z,49.70
2017-10-06T01:00:09.118Z,49.70
2017-10-06T01:02:37.362Z,50.10
2017-10-06T01:05:06.095Z,49.90
2017-10-06T01:07:34.407Z,49.90
2017-10-06T01:10:02.702Z,49.80
2017-10-06T01:12:30.898Z,49.80
2017-10-06T01:14:59.104Z,49.80
2017-10-06T01:17:27.320Z,49.80
2017-10-06T01:19:55.499Z,49.90
2017-10-06T01:22:24.103Z,49.80
2017-10-06T01:24:52.303Z,49.80
2017-10-06T01:27:20.509Z,49.80
2017-10-06T01:29:48.703Z,49.80
2017-10-06T01:32:16.896Z,49.90
2017-10-06T01:34:45.116Z,49.90
2017-10-06T01:37:13.291Z,50.50
2017-10-06T01:39:42.283Z,49.90
2017-10-06T01:42:10.544Z,49.70
2017-10-06T01:44:38.776Z,49.80
2017-10-06T01:47:06.986Z,49.80
2017-10-06T01:49:35.183Z,49.80
2017-10-06T01:52:03.351Z,49.80
2017-10-06T01:54:31.572Z,49.80
2017-10-06T01:56:59.767Z,49.90
2017-10-06T01:59:27.959Z,49.90
2017-10-06T02:01:56.165Z,50.00
2017-10-06T02:04:24.369Z,50.00
2017-10-06T02:06:52.559Z,49.90
2017-10-06T02:09:20.775Z,49.90
2017-10-06T02:11:49.746Z,49.90
2017-10-06T02:14:17.967Z,49.90
2017-10-06T02:16:46.192Z,49.90
2017-10-06T02:19:14.849Z,49.90
2017-10-06T02:21:43.034Z,49.90
2017-10-06T02:24:11.230Z,49.90
2017-10-06T02:26:39.422Z,50.00
2017-10-06T02:29:07.637Z,49.90
2017-10-06T02:31:35.831Z,49.90
2017-10-06T02:34:04.032Z,49.90
2017-10-06T02:36:32.265Z,49.90
2017-10-06T02:39:00.476Z,50.00
2017-10-06T02:41:28.683Z,50.00
2017-10-06T02:43:56.930Z,50.00
2017-10-06T02:46:25.907Z,49.90
2017-10-06T02:48:54.238Z,49.90
2017-10-06T02:51:22.467Z,49.70
2017-10-06T02:53:51.458Z,50.00
2017-10-06T02:56:20.805Z,50.00
2017-10-06T02:58:49.034Z,49.90
2017-10-06T03:01:18.020Z,50.00
2017-10-06T03:03:47.347Z,50.10
2017-10-06T03:06:15.537Z,50.00
2017-10-06T03:08:43.743Z,50.00
2017-10-06T03:11:11.998Z,50.00
2017-10-06T03:13:40.220Z,50.00
2017-10-06T03:16:09.211Z,50.10
2017-10-06T03:18:37.457Z,50.00
2017-10-06T03:21:05.659Z,50.00
2017-10-06T03:23:34.638Z,50.00
2017-10-06T03:26:03.307Z,50.00
2017-10-06T03:28:31.509Z,50.00
2017-10-06T03:31:00.519Z,50.00
2017-10-06T03:33:29.502Z,50.00
2017-10-06T03:35:58.487Z,50.00
2017-10-06T03:38:26.699Z,49.90
2017-10-06T03:40:54.908Z,50.00
2017-10-06T03:43:23.475Z,50.00
2017-10-06T03:45:51.827Z,50.00
2017-10-06T03:48:20.027Z,50.00
2017-10-06T03:50:48.290Z,50.00
2017-10-06T03:53:16.567Z,50.00
2017-10-06T03:55:45.159Z,49.90
2017-10-06T03:58:13.349Z,49.90
2017-10-06T04:00:41.564Z,49.90
2017-10-06T04:03:10.536Z,49.90
2017-10-06T04:05:38.761Z,49.90
2017-10-06T04:08:06.950Z,50.50
2017-10-06T04:10:35.167Z,49.90
2017-10-06T04:13:04.685Z,50.00
2017-10-06T04:15:32.874Z,49.90
2017-10-06T04:18:01.079Z,49.90
2017-10-06T04:20:29.299Z,50.00
2017-10-06T04:22:57.574Z,50.00
2017-10-06T04:25:25.820Z,49.90
2017-10-06T04:27:54.066Z,50.00
2017-10-06T04:30:22.280Z,50.00
2017-10-06T04:32:50.498Z,50.00
2017-10-06T04:35:18.705Z,50.00
2017-10-06T04:37:47.379Z,49.90
2017-10-06T04:40:15.631Z,50.00
2017-10-06T04:42:43.886Z,50.10
2017-10-06T04:45:12.856Z,50.10
2017-10-06T04:47:41.843Z,50.10
2017-10-06T04:50:10.043Z,50.10
2017-10-06T04:52:38.382Z,50.10
2017-10-06T04:55:06.594Z,50.20
2017-10-06T04:57:34.855Z,50.10
2017-10-06T05:00:03.840Z,50.20
2017-10-06T05:02:32.099Z,50.10
2017-10-06T05:05:00.347Z,50.10
2017-10-06T05:07:28.655Z,50.10
2017-10-06T05:09:56.878Z,50.00
2017-10-06T05:12:25.105Z,50.00
2017-10-06T05:14:53.320Z,49.80
2017-10-06T05:17:21.512Z,49.90
2017-10-06T05:19:49.715Z,49.80
2017-10-06T05:22:17.923Z,49.70
2017-10-06T05:24:47.258Z,49.70
2017-10-06T05:27:15.477Z,49.60
2017-10-06T05:29:43.876Z,49.60
2017-10-06T05:32:12.843Z,49.40
2017-10-06T05:34:41.059Z,49.40
2017-10-06T05:37:09.501Z,49.40
2017-10-06T05:39:38.421Z,49.20
2017-10-06T05:42:06.683Z,49.20
2017-10-06T05:44:35.720Z,49.10
2017-10-06T05:47:04.583Z,49.10
2017-10-06T05:49:32.804Z,49.00
2017-10-06T05:52:01.091Z,49.10
2017-10-06T05:54:29.313Z,49.10
2017-10-06T05:56:57.539Z,49.10
2017-10-06T05:59:25.766Z,49.20
2017-10-06T06:01:53.973Z,49.10
2017-10-06T06:04:22.208Z,49.10
2017-10-06T06:06:51.262Z,49.10
2017-10-06T06:09:20.552Z,49.10
2017-10-06T06:11:48.780Z,49.00
2017-10-06T06:14:17.003Z,49.00
2017-10-06T06:16:45.227Z,49.00
2017-10-06T06:19:13.507Z,49.00
2017-10-06T06:21:41.715Z,49.00
2017-10-06T06:24:10.047Z,49.10
2017-10-06T06:26:38.254Z,49.10
2017-10-06T06:29:06.462Z,49.00
2017-10-06T06:31:35.526Z,49.00
2017-10-06T06:34:03.722Z,49.00
2017-10-06T06:36:31.954Z,49.00
2017-10-06T06:39:00.143Z,49.00
2017-10-06T06:41:28.383Z,49.00
2017-10-06T06:43:56.635Z,49.00
2017-10-06T06:46:25.587Z,49.00
2017-10-06T06:48:53.813Z,49.00
2017-10-06T06:51:25.646Z,49.00
2017-10-06T06:53:54.279Z,49.10
2017-10-06T06:56:23.266Z,49.10
2017-10-06T06:58:51.498Z,49.10
2017-10-06T07:01:20.484Z,49.20
2017-10-06T07:03:48.674Z,49.10
2017-10-06T07:06:17.990Z,49.10
2017-10-06T07:08:46.235Z,49.10
2017-10-06T07:11:15.247Z,49.20
2017-10-06T07:13:44.222Z,49.10
2017-10-06T07:16:13.313Z,49.10
2017-10-06T07:18:43.050Z,49.20
2017-10-06T07:21:14.945Z,49.20
2017-10-06T07:23:43.211Z,49.20
2017-10-06T07:26:11.433Z,49.20
2017-10-06T07:28:39.687Z,49.20
2017-10-06T07:31:07.881Z,49.20
2017-10-06T07:33:36.823Z,49.50
2017-10-06T07:36:05.278Z,49.40
2017-10-06T07:38:33.478Z,49.40
2017-10-06T07:41:01.673Z,49.40
2017-10-06T07:43:29.930Z,49.40
2017-10-06T07:45:58.159Z,49.40
2017-10-06T07:48:26.379Z,49.40
2017-10-06T07:50:54.706Z,49.50
2017-10-06T07:53:22.906Z,49.40
2017-10-06T07:55:51.114Z,49.40
2017-10-06T07:58:19.448Z,49.40
2017-10-06T08:00:47.669Z,49.40
2017-10-06T08:03:15.873Z,49.40
2017-10-06T08:05:44.843Z,49.40
2017-10-06T08:08:13.390Z,49.40
2017-10-06T08:10:42.266Z,49.40
2017-10-06T08:13:10.667Z,49.40
2017-10-06T08:15:39.926Z,49.50
2017-10-06T08:18:10.136Z,49.50
2017-10-06T08:20:38.784Z,49.50
2017-10-06T08:23:07.948Z,49.50
2017-10-06T08:25:37.235Z,49.50
2017-10-06T08:28:06.931Z,49.50
2017-10-06T08:30:35.860Z,49.60
2017-10-06T08:33:04.996Z,49.60
2017-10-06T08:35:34.245Z,49.70
2017-10-06T08:38:03.460Z,49.60
2017-10-06T08:40:32.000Z,49.60
2017-10-06T08:43:00.875Z,49.70
2017-10-06T08:45:30.474Z,49.70
2017-10-06T08:47:59.239Z,49.60
2017-10-06T08:50:27.662Z,49.60
2017-10-06T08:52:56.902Z,49.70
2017-10-06T08:55:26.157Z,49.70
2017-10-06T08:57:55.867Z,49.80
2017-10-06T09:00:25.511Z,49.80
2017-10-06T09:02:55.317Z,49.80
2017-10-06T09:05:24.443Z,49.80
2017-10-06T09:07:53.099Z,49.80
2017-10-06T09:10:21.721Z,49.80
2017-10-06T09:12:50.027Z,50.40
2017-10-06T09:15:18.694Z,49.90
2017-10-06T09:17:48.324Z,49.90
2017-10-06T09:20:17.721Z,49.90
2017-10-06T09:22:46.543Z,49.90
2017-10-06T09:25:15.761Z,50.00
2017-10-06T09:27:44.363Z,50.10
2017-10-06T09:30:13.001Z,50.10
2017-10-06T09:32:42.024Z,50.20
2017-10-06T09:35:11.082Z,50.20
2017-10-06T09:37:39.507Z,50.20
2017-10-06T09:40:07.819Z,50.20
2017-10-06T09:42:36.127Z,50.30
2017-10-06T09:45:05.607Z,50.30
2017-10-06T09:47:34.183Z,50.30
2017-10-06T09:50:02.768Z,50.30
2017-10-06T09:52:31.575Z,50.30
2017-10-06T09:55:00.292Z,50.30
2017-10-06T09:57:28.856Z,50.40
2017-10-06T09:59:59.976Z,50.40
2017-10-06T10:02:28.509Z,50.50
2017-10-06T10:04:57.364Z,50.60
2017-10-06T10:07:26.244Z,50.60
2017-10-06T10:09:54.625Z,50.50
2017-10-06T10:12:23.316Z,50.60
2017-10-06T10:14:51.588Z,50.60
2017-10-06T10:17:20.051Z,50.60
2017-10-06T10:19:48.861Z,50.70
2017-10-06T10:22:17.196Z,50.70
2017-10-06T10:24:46.676Z,50.70
2017-10-06T10:27:16.120Z,50.70
2017-10-06T10:29:44.568Z,50.70
2017-10-06T10:32:13.700Z,50.80
2017-10-06T10:34:42.034Z,50.80
2017-10-06T10:37:11.585Z,50.80
2017-10-06T10:39:40.479Z,50.80
2017-10-06T10:42:09.684Z,50.80
2017-10-06T10:44:38.448Z,50.80
2017-10-06T10:47:06.974Z,50.70
2017-10-06T10:49:35.164Z,50.70
2017-10-06T10:52:04.196Z,50.70
2017-10-06T10:54:33.765Z,51.30
2017-10-06T10:57:04.455Z,50.70
2017-10-06T10:59:33.156Z,50.60
2017-10-06T11:02:01.884Z,50.60
2017-10-06T11:04:31.322Z,50.60
2017-10-06T11:07:00.208Z,50.60
2017-10-06T11:09:33.480Z,50.60
2017-10-06T11:12:02.782Z,50.40
2017-10-06T11:14:32.912Z,50.50
2017-10-06T11:17:01.761Z,50.40
2017-10-06T11:19:30.346Z,50.30
2017-10-06T11:21:59.366Z,50.20
2017-10-06T11:24:27.607Z,50.20
2017-10-06T11:26:56.603Z,50.10
2017-10-06T11:29:25.555Z,49.90
2017-10-06T11:31:53.878Z,49.80
2017-10-06T11:34:22.353Z,49.90
2017-10-06T11:36:51.358Z,49.80
2017-10-06T11:39:19.601Z,49.90
2017-10-06T11:41:48.731Z,49.70
2017-10-06T11:44:17.760Z,49.60
2017-10-06T11:46:45.983Z,49.60
2017-10-06T11:49:14.951Z,49.80
2017-10-06T11:51:43.178Z,49.70
2017-10-06T11:54:11.379Z,49.70
2017-10-06T11:56:39.685Z,49.70
2017-10-06T11:59:08.645Z,49.30
2017-10-06T12:01:36.858Z,49.30
2017-10-06T12:04:05.038Z,49.20
2017-10-06T12:06:33.983Z,48.70
2017-10-06T12:09:02.331Z,48.70
2017-10-06T12:11:30.546Z,48.80
2017-10-06T12:13:58.810Z,48.90
2017-10-06T12:16:26.987Z,48.80
2017-10-06T12:18:55.194Z,48.60
2017-10-06T12:21:23.446Z,48.70
2017-10-06T12:23:51.747Z,49.20
2017-10-06T12:26:20.738Z,48.70
2017-10-06T12:28:48.957Z,48.70
2017-10-06T12:31:17.163Z,48.80
2017-10-06T12:33:45.343Z,48.60
2017-10-06T12:36:13.953Z,48.50
2017-10-06T12:38:42.977Z,48.40
2017-10-06T12:41:11.172Z,48.40
2017-10-06T12:43:39.371Z,48.40
2017-10-06T12:46:07.561Z,48.30
2017-10-06T12:48:36.651Z,48.30
2017-10-06T12:51:04.839Z,48.30
2017-10-06T12:53:33.823Z,48.40
2017-10-06T12:56:02.927Z,48.50
2017-10-06T12:58:31.152Z,48.50
2017-10-06T13:00:59.499Z,48.60
2017-10-06T13:03:27.704Z,48.70
2017-10-06T13:05:55.914Z,48.70
2017-10-06T13:08:24.922Z,48.40
2017-10-06T13:10:53.123Z,48.30
2017-10-06T13:13:21.352Z,48.10
2017-10-06T13:15:49.594Z,48.30
2017-10-06T13:18:17.974Z,47.70
2017-10-06T13:20:46.199Z,47.80
2017-10-06T13:23:14.437Z,47.90
2017-10-06T13:25:42.638Z,48.10
2017-10-06T13:28:11.608Z,47.80
2017-10-06T13:30:39.816Z,47.80
2017-10-06T13:33:08.041Z,47.90
2017-10-06T13:35:36.327Z,47.60
2017-10-06T13:38:04.542Z,47.50
2017-10-06T13:40:33.152Z,47.60
2017-10-06T13:43:01.404Z,47.60
2017-10-06T13:45:29.632Z,48.30
2017-10-06T13:47:57.847Z,47.80
2017-10-06T13:50:26.059Z,47.90
2017-10-06T13:52:54.272Z,48.00
2017-10-06T13:55:23.338Z,48.00
2017-10-06T13:57:51.551Z,48.00
2017-10-06T14:00:20.521Z,48.10
2017-10-06T14:02:48.739Z,48.10
2017-10-06T14:05:16.974Z,47.90
2017-10-06T14:07:45.167Z,47.70
2017-10-06T14:10:14.148Z,47.60
2017-10-06T14:12:42.419Z,47.60
2017-10-06T14:15:11.439Z,47.80
2017-10-06T14:17:39.721Z,47.80
2017-10-06T14:20:07.950Z,47.80
2017-10-06T14:22:36.239Z,48.00
2017-10-06T14:25:05.231Z,48.10
2017-10-06T14:27:34.251Z,48.10
2017-10-06T14:30:02.701Z,48.10
2017-10-06T14:32:30.935Z,47.80
2017-10-06T14:34:59.143Z,47.60
2017-10-06T14:37:27.361Z,47.60
2017-10-06T14:39:55.649Z,47.50
2017-10-06T14:42:23.867Z,47.70
2017-10-06T14:44:52.127Z,47.70
2017-10-06T14:47:20.402Z,47.50
2017-10-06T14:49:48.636Z,47.50
2017-10-06T14:52:16.847Z,47.50
2017-10-06T14:54:45.067Z,47.60
2017-10-06T14:57:13.322Z,47.30
2017-10-06T14:59:42.340Z,47.40
2017-10-06T15:02:10.636Z,47.30
2017-10-06T15:04:38.899Z,47.50
2017-10-06T15:07:07.201Z,47.50
2017-10-06T15:09:35.404Z,47.30
2017-10-06T15:12:03.715Z,47.20
2017-10-06T15:14:31.992Z,46.70
2017-10-06T15:17:00.255Z,47.50
2017-10-06T15:19:28.562Z,47.30
2017-10-06T15:21:57.059Z,47.10
2017-10-06T15:24:25.523Z,47.00
2017-10-06T15:26:53.764Z,47.10
2017-10-06T15:29:22.086Z,47.10
2017-10-06T15:31:50.317Z,47.20
2017-10-06T15:34:19.572Z,47.30
2017-10-06T15:36:47.806Z,47.30
2017-10-06T15:39:16.081Z,47.30
2017-10-06T15:41:44.313Z,47.40
2017-10-06T15:44:15.696Z,47.50
2017-10-06T15:46:43.924Z,47.50
2017-10-06T15:49:12.137Z,47.50
2017-10-06T15:51:40.352Z,47.60
2017-10-06T15:54:08.571Z,47.60
2017-10-06T15:56:36.923Z,47.60
2017-10-06T15:59:05.144Z,47.60
2017-10-06T16:01:33.403Z,47.70
2017-10-06T16:04:02.407Z,47.80
2017-10-06T16:06:30.693Z,47.80
2017-10-06T16:08:58.914Z,47.80
2017-10-06T16:11:27.125Z,47.90
2017-10-06T16:13:55.513Z,47.90
2017-10-06T16:16:23.763Z,47.90
2017-10-06T16:18:52.772Z,48.00
2017-10-06T16:21:21.098Z,48.00
2017-10-06T16:23:49.350Z,48.00
2017-10-06T16:26:17.580Z,48.00
2017-10-06T16:28:46.676Z,48.00
2017-10-06T16:31:15.705Z,48.00
2017-10-06T16:33:44.695Z,48.00
2017-10-06T16:36:19.358Z,48.10
2017-10-06T16:38:47.572Z,48.10
2017-10-06T16:41:15.898Z,48.10
2017-10-06T16:43:44.181Z,48.20
2017-10-06T16:46:12.403Z,48.10
2017-10-06T16:48:40.583Z,48.10
2017-10-06T16:51:08.795Z,48.20
2017-10-06T16:53:37.085Z,48.20
2017-10-06T16:56:06.115Z,48.20
2017-10-06T16:58:34.452Z,48.20
2017-10-06T17:01:02.708Z,48.20
2017-10-06T17:03:30.924Z,48.20
2017-10-06T17:05:59.916Z,48.20
2017-10-06T17:08:28.877Z,48.20
2017-10-06T17:10:57.216Z,48.20
2017-10-06T17:13:25.392Z,48.30
2017-10-06T17:15:53.592Z,48.30
2017-10-06T17:18:21.877Z,48.30
2017-10-06T17:20:50.103Z,48.30
2017-10-06T17:23:18.333Z,48.30
2017-10-06T17:25:47.649Z,48.30
2017-10-06T17:28:15.932Z,48.40
2017-10-06T17:30:45.691Z,48.40
2017-10-06T17:33:13.896Z,48.30
2017-10-06T17:35:42.168Z,48.40
2017-10-06T17:38:10.734Z,48.60
2017-10-06T17:40:38.940Z,48.60
2017-10-06T17:43:07.910Z,48.90
2017-10-06T17:45:36.115Z,48.80
2017-10-06T17:48:07.022Z,48.90
2017-10-06T17:50:36.166Z,48.90
2017-10-06T17:53:06.196Z,48.90
2017-10-06T17:55:34.648Z,48.90
2017-10-06T17:58:03.792Z,49.00
2017-10-06T18:00:31.983Z,49.00
2017-10-06T18:03:00.254Z,49.00
2017-10-06T18:05:28.539Z,49.00
2017-10-06T18:07:56.812Z,49.00
2017-10-06T18:10:26.692Z,49.10
2017-10-06T18:12:54.902Z,49.00
2017-10-06T18:15:24.172Z,49.10
2017-10-06T18:17:52.630Z,49.10
2017-10-06T18:20:20.854Z,49.20
2017-10-06T18:22:49.102Z,49.20
2017-10-06T18:25:18.100Z,49.20
2017-10-06T18:27:46.345Z,49.20
2017-10-06T18:30:14.755Z,49.20
2017-10-06T18:32:42.971Z,49.20
2017-10-06T18:35:11.927Z,49.30
2017-10-06T18:37:40.101Z,49.30
2017-10-06T18:40:08.591Z,49.30
2017-10-06T18:42:36.816Z,49.20
2017-10-06T18:45:05.008Z,49.30
2017-10-06T18:47:33.269Z,49.30
2017-10-06T18:50:01.571Z,49.30
2017-10-06T18:52:30.008Z,49.20
2017-10-06T18:54:58.263Z,49.30
2017-10-06T18:57:27.262Z,49.30
2017-10-06T18:59:56.354Z,49.30
2017-10-06T19:02:25.334Z,49.30
2017-10-06T19:04:54.564Z,49.30
2017-10-06T19:07:22.780Z,49.30
2017-10-06T19:09:50.966Z,49.90
2017-10-06T19:12:19.260Z,49.20
2017-10-06T19:14:48.538Z,49.30
2017-10-06T19:17:17.876Z,49.30
2017-10-06T19:19:46.180Z,49.30
2017-10-06T19:22:14.399Z,49.30
2017-10-06T19:24:43.453Z,49.30
2017-10-06T19:27:11.679Z,49.30
2017-10-06T19:29:42.370Z,49.40
2017-10-06T19:32:10.583Z,49.30
2017-10-06T19:34:39.575Z,49.50
2017-10-06T19:37:08.569Z,49.50
2017-10-06T19:39:37.602Z,49.40
2017-10-06T19:42:05.814Z,49.50
2017-10-06T19:44:34.220Z,49.40
2017-10-06T19:47:02.591Z,49.40
2017-10-06T19:49:31.586Z,49.40
2017-10-06T19:52:00.712Z,49.50
2017-10-06T19:54:28.938Z,49.40
2017-10-06T19:56:57.216Z,49.50
2017-10-06T19:59:26.236Z,49.50
2017-10-06T20:01:55.224Z,49.50
2017-10-06T20:04:24.215Z,49.50
2017-10-06T20:06:52.435Z,49.50
2017-10-06T20:09:21.551Z,49.50
2017-10-06T20:11:49.902Z,49.50
2017-10-06T20:14:18.294Z,49.50
2017-10-06T20:16:46.497Z,49.50
2017-10-06T20:19:15.753Z,49.50
2017-10-06T20:21:44.433Z,49.50
2017-10-06T20:24:12.675Z,49.50
2017-10-06T20:26:42.536Z,49.50
2017-10-06T20:29:13.323Z,49.50
2017-10-06T20:31:41.595Z,49.50
2017-10-06T20:34:09.879Z,49.50
2017-10-06T20:36:38.089Z,49.50
2017-10-06T20:39:07.239Z,49.50
2017-10-06T20:41:35.514Z,49.50
2017-10-06T20:44:04.503Z,49.50
2017-10-06T20:46:33.504Z,49.50
2017-10-06T20:49:01.834Z,49.50
2017-10-06T20:51:32.182Z,49.50
2017-10-06T20:54:01.344Z,49.50
2017-10-06T20:56:29.990Z,49.60
2017-10-06T20:58:59.723Z,49.60
2017-10-06T21:01:28.250Z,49.60
2017-10-06T21:03:57.270Z,49.50
2017-10-06T21:06:25.481Z,49.50
2017-10-06T21:08:53.726Z,49.60
2017-10-06T21:11:22.055Z,49.60
2017-10-06T21:13:51.355Z,49.60
2017-10-06T21:16:24.821Z,49.60
2017-10-06T21:18:53.043Z,49.60
2017-10-06T21:21:22.032Z,49.60
2017-10-06T21:23:52.018Z,49.60
2017-10-06T21:26:22.600Z,49.50
2017-10-06T21:28:51.416Z,49.60
2017-10-06T21:31:20.117Z,49.60
2017-10-06T21:33:52.023Z,49.60
2017-10-06T21:36:21.334Z,49.60
2017-10-06T21:38:49.662Z,49.60
2017-10-06T21:41:19.810Z,49.70
2017-10-06T21:43:48.052Z,49.70
2017-10-06T21:46:16.315Z,49.70
2017-10-06T21:48:44.533Z,49.70
2017-10-06T21:51:14.447Z,49.70
2017-10-06T21:53:43.467Z,49.70
2017-10-06T21:56:11.732Z,49.70
2017-10-06T21:58:40.791Z,49.70
2017-10-06T22:01:11.642Z,49.70
2017-10-06T22:03:39.846Z,49.70
2017-10-06T22:06:11.096Z,49.70
2017-10-06T22:08:39.687Z,49.80
2017-10-06T22:11:07.892Z,49.80
2017-10-06T22:13:41.371Z,49.90
2017-10-06T22:16:09.678Z,50.00
2017-10-06T22:18:37.883Z,50.10
2017-10-06T22:21:06.964Z,50.10
2017-10-06T22:23:35.188Z,50.00
2017-10-06T22:26:03.592Z,50.70
2017-10-06T22:28:31.794Z,50.10
2017-10-06T22:31:00.739Z,50.10
2017-10-06T22:33:28.990Z,50.10
2017-10-06T22:35:57.515Z,50.20
2017-10-06T22:38:25.757Z,50.20
2017-10-06T22:40:53.930Z,50.30
2017-10-06T22:43:22.216Z,50.40
2017-10-06T22:45:50.447Z,50.40
2017-10-06T22:48:19.474Z,50.60
2017-10-06T22:50:47.678Z,50.60
2017-10-06T22:53:16.160Z,50.70
2017-10-06T22:55:44.398Z,50.70
2017-10-06T22:58:12.680Z,50.70
2017-10-06T23:00:40.948Z,50.90
2017-10-06T23:03:09.148Z,50.90
2017-10-06T23:05:37.376Z,51.00
2017-10-06T23:08:05.596Z,51.00
2017-10-06T23:10:33.846Z,51.00
2017-10-06T23:13:02.083Z,51.00
2017-10-06T23:15:30.295Z,51.00
2017-10-06T23:17:58.896Z,50.90
2017-10-06T23:20:27.217Z,51.00
2017-10-06T23:22:55.518Z,50.90
2017-10-06T23:25:23.778Z,50.90
2017-10-06T23:27:52.695Z,50.90
2017-10-06T23:30:20.966Z,51.00
2017-10-06T23:32:49.247Z,51.00
2017-10-06T23:35:17.754Z,51.00
2017-10-06T23:37:52.871Z,51.10
2017-10-06T23:40:21.399Z,51.20
2017-10-06T23:42:50.557Z,51.30
2017-10-06T23:45:19.793Z,51.30
2017-10-06T23:47:51.905Z,51.30
2017-10-06T23:50:22.187Z,51.30
2017-10-06T23:52:50.568Z,51.40
2017-10-06T23:55:33.323Z,51.40
2017-10-06T23:58:10.387Z,51.50
